createdAt,value
2023-02-12T00:02:24.659Z,18.00
2023-02-12T00:04:51.243Z,18.03
2023-02-12T00:07:19.819Z,17.84
2023-02-12T00:09:47.049Z,16.15
2023-02-12T00:12:15.498Z,14.78
2023-02-12T00:14:45.173Z,13.59
2023-02-12T00:19:51.516Z,11.53
2023-02-12T00:22:21.732Z,11.96
2023-02-12T00:24:48.100Z,12.00
2023-02-12T00:27:17.221Z,11.25
2023-02-12T00:29:43.687Z,11.49
2023-02-12T00:34:50.371Z,13.75
2023-02-12T00:37:16.846Z,14.32
2023-02-12T00:39:44.692Z,14.13
2023-02-12T00:42:12.316Z,14.26
2023-02-12T00:44:38.733Z,14.75
2023-02-12T00:47:05.697Z,15.81
2023-02-12T00:49:32.294Z,13.18
2023-02-12T00:51:58.798Z,12.81
2023-02-12T00:54:25.236Z,12.46
2023-02-12T00:56:51.619Z,11.97
2023-02-12T00:59:18.024Z,11.77
2023-02-12T01:01:44.651Z,11.53
2023-02-12T01:04:11.254Z,11.85
2023-02-12T01:06:50.521Z,12.78
2023-02-12T01:09:17.016Z,12.44
2023-02-12T01:11:43.391Z,12.92
2023-02-12T01:14:09.817Z,13.85
2023-02-12T01:16:36.501Z,13.85
2023-02-12T01:19:03.194Z,14.54
2023-02-12T01:21:29.631Z,14.54
2023-02-12T01:23:58.966Z,15.59
2023-02-12T01:26:25.590Z,15.84
2023-02-12T01:28:52.169Z,15.96
2023-02-12T01:31:18.686Z,16.85
2023-02-12T01:33:45.145Z,16.90
2023-02-12T01:36:11.553Z,15.28
2023-02-12T01:38:37.995Z,16.30
2023-02-12T01:41:04.385Z,17.09
2023-02-12T01:43:30.827Z,16.95
2023-02-12T01:45:57.557Z,17.83
2023-02-12T01:48:24.245Z,16.59
2023-02-12T01:50:50.824Z,16.66
2023-02-12T01:53:17.263Z,15.10
2023-02-12T01:55:43.702Z,15.67
2023-02-12T01:58:10.068Z,17.35
2023-02-12T02:00:36.474Z,16.26
2023-02-12T02:03:02.998Z,14.72
2023-02-12T02:05:29.472Z,14.10
2023-02-12T02:07:55.833Z,15.60
2023-02-12T02:10:22.269Z,14.28
2023-02-12T02:12:48.701Z,12.80
2023-02-12T02:15:15.092Z,19.05
2023-02-12T02:17:41.564Z,33.87
2023-02-12T02:20:08.034Z,20.11
2023-02-12T02:22:34.430Z,16.53
2023-02-12T02:25:00.872Z,17.07
2023-02-12T02:27:28.288Z,16.66
2023-02-12T02:29:54.751Z,18.47
2023-02-12T02:32:21.177Z,27.06
2023-02-12T02:34:47.581Z,29.81
2023-02-12T02:37:14.027Z,27.08
2023-02-12T02:39:40.420Z,17.32
2023-02-12T02:42:06.780Z,14.94
2023-02-12T02:44:33.203Z,13.00
2023-02-12T02:46:59.756Z,14.66
2023-02-12T02:49:26.162Z,15.00
2023-02-12T02:51:52.550Z,14.33
2023-02-12T02:54:18.918Z,14.58
2023-02-12T02:56:45.349Z,13.69
2023-02-12T02:59:11.745Z,13.40
2023-02-12T03:01:38.102Z,11.89
2023-02-12T03:04:04.495Z,11.92
2023-02-12T03:06:30.916Z,11.96
2023-02-12T03:08:57.264Z,13.60
2023-02-12T03:11:23.630Z,13.87
2023-02-12T03:13:50.498Z,14.70
2023-02-12T03:16:18.611Z,15.62
2023-02-12T03:18:45.005Z,14.64
2023-02-12T03:21:11.450Z,14.81
2023-02-12T03:23:37.874Z,14.84
2023-02-12T03:26:04.349Z,15.30
2023-02-12T03:28:30.765Z,14.84
2023-02-12T03:30:57.845Z,15.66
2023-02-12T03:33:24.210Z,15.21
2023-02-12T03:35:50.616Z,15.88
2023-02-12T03:38:17.034Z,16.42
2023-02-12T03:40:45.812Z,15.97
2023-02-12T03:43:12.201Z,15.57
2023-02-12T03:45:38.592Z,15.93
2023-02-12T03:48:04.999Z,15.19
2023-02-12T03:50:31.559Z,13.96
2023-02-12T03:52:57.904Z,13.96
2023-02-12T03:55:24.242Z,14.42
2023-02-12T03:57:51.013Z,15.06
2023-02-12T04:02:58.829Z,14.88
2023-02-12T04:05:25.266Z,15.58
2023-02-12T04:07:51.655Z,14.81
2023-02-12T04:10:18.052Z,14.37
2023-02-12T04:12:44.422Z,14.90
2023-02-12T04:15:10.842Z,16.14
2023-02-12T04:17:37.419Z,18.34
2023-02-12T04:20:04.013Z,16.45
2023-02-12T04:22:30.365Z,14.51
2023-02-12T04:24:56.748Z,14.62
2023-02-12T04:27:23.113Z,15.26
2023-02-12T04:29:49.521Z,15.79
2023-02-12T04:32:15.899Z,16.77
2023-02-12T04:34:42.334Z,18.44
2023-02-12T04:37:08.770Z,19.30
2023-02-12T04:39:35.183Z,20.01
2023-02-12T04:42:01.618Z,16.99
2023-02-12T04:44:28.099Z,14.79
2023-02-12T04:46:54.441Z,14.05
2023-02-12T04:49:20.806Z,13.52
2023-02-12T04:51:47.231Z,13.11
2023-02-12T04:54:13.654Z,12.95
2023-02-12T04:56:40.091Z,12.17
2023-02-12T04:59:08.673Z,12.48
2023-02-12T05:01:35.346Z,12.76
2023-02-12T05:04:01.803Z,11.94
2023-02-12T05:06:28.178Z,11.56
2023-02-12T05:08:54.581Z,11.83
2023-02-12T05:11:21.040Z,12.11
2023-02-12T05:13:47.536Z,12.72
2023-02-12T05:16:14.069Z,13.56
2023-02-12T05:18:40.715Z,13.72
2023-02-12T05:21:07.450Z,14.43
2023-02-12T05:23:34.074Z,13.92
2023-02-12T05:26:00.596Z,13.42
2023-02-12T05:28:27.124Z,13.69
2023-02-12T05:30:53.598Z,13.97
2023-02-12T05:33:20.035Z,15.37
2023-02-12T05:35:46.385Z,16.98
2023-02-12T05:38:12.826Z,16.81
2023-02-12T05:40:39.284Z,14.94
2023-02-12T05:43:05.812Z,14.62
2023-02-12T05:45:32.177Z,14.02
2023-02-12T05:47:58.550Z,15.65
2023-02-12T05:50:24.905Z,15.89
2023-02-12T05:52:51.306Z,16.24
2023-02-12T05:55:17.703Z,15.61
2023-02-12T05:57:44.278Z,15.69
2023-02-12T06:00:11.780Z,15.74
2023-02-12T06:02:38.533Z,15.33
2023-02-12T06:05:06.499Z,15.96
2023-02-12T06:07:32.923Z,15.85
2023-02-12T06:09:59.317Z,15.66
2023-02-12T06:12:25.837Z,15.85
2023-02-12T06:14:52.263Z,16.10
2023-02-12T06:17:18.849Z,15.55
2023-02-12T06:19:45.207Z,15.05
2023-02-12T06:22:11.697Z,14.80
2023-02-12T06:24:39.217Z,14.46
2023-02-12T06:27:05.655Z,14.31
2023-02-12T06:29:32.050Z,13.84
2023-02-12T06:31:58.625Z,12.97
2023-02-12T06:34:25.071Z,13.38
2023-02-12T06:36:51.497Z,12.86
2023-02-12T06:39:17.882Z,12.78
2023-02-12T06:41:44.256Z,12.74
2023-02-12T06:44:10.628Z,12.95
2023-02-12T06:46:37.019Z,12.89
2023-02-12T06:49:03.381Z,12.74
2023-02-12T06:51:29.783Z,12.64
2023-02-12T06:53:56.359Z,12.99
2023-02-12T06:56:22.735Z,13.80
2023-02-12T06:58:52.673Z,13.96
2023-02-12T07:01:19.131Z,14.08
2023-02-12T07:03:45.656Z,14.16
2023-02-12T07:06:13.222Z,14.34
2023-02-12T07:08:39.576Z,14.16
2023-02-12T07:11:05.981Z,13.41
2023-02-12T07:13:32.313Z,13.26
2023-02-12T07:15:59.774Z,13.14
2023-02-12T07:18:26.209Z,13.44
2023-02-12T07:20:52.972Z,13.84
2023-02-12T07:23:19.371Z,14.34
2023-02-12T07:25:45.840Z,14.55
2023-02-12T07:28:12.295Z,14.80
2023-02-12T07:30:40.524Z,15.17
2023-02-12T07:33:08.850Z,24.70
2023-02-12T07:35:35.400Z,28.89
2023-02-12T07:38:01.828Z,47.17
2023-02-12T07:40:28.294Z,41.08
2023-02-12T07:42:54.750Z,26.30
2023-02-12T07:45:21.212Z,28.45
2023-02-12T07:47:47.611Z,17.34
2023-02-12T07:50:14.093Z,15.55
2023-02-12T07:52:40.611Z,15.65
2023-02-12T07:55:07.149Z,15.85
2023-02-12T07:57:33.594Z,15.82
2023-02-12T07:59:59.985Z,15.82
2023-02-12T08:02:26.394Z,16.18
2023-02-12T08:04:54.440Z,16.08
2023-02-12T08:07:22.594Z,15.98
2023-02-12T08:09:51.182Z,16.12
2023-02-12T08:12:17.619Z,16.40
2023-02-12T08:14:44.064Z,15.62
2023-02-12T08:17:10.488Z,16.20
2023-02-12T08:19:36.890Z,16.22
2023-02-12T08:22:03.336Z,16.19
2023-02-12T08:24:29.739Z,16.28
2023-02-12T08:26:56.155Z,16.83
2023-02-12T08:29:22.666Z,16.43
2023-02-12T08:31:49.203Z,18.47
2023-02-12T08:34:15.952Z,19.23
2023-02-12T08:36:42.296Z,19.64
2023-02-12T08:39:08.766Z,18.33
2023-02-12T08:41:35.238Z,17.32
2023-02-12T08:44:01.663Z,16.76
2023-02-12T08:46:28.138Z,16.13
2023-02-12T08:48:54.565Z,15.97
2023-02-12T08:51:20.976Z,16.31
2023-02-12T08:53:48.401Z,16.90
2023-02-12T08:56:34.824Z,17.08
2023-02-12T08:59:01.275Z,17.39
2023-02-12T09:01:27.840Z,16.99
2023-02-12T09:03:54.352Z,17.11
2023-02-12T09:06:20.768Z,17.52
2023-02-12T09:08:47.143Z,17.10
2023-02-12T09:11:19.246Z,16.52
2023-02-12T09:13:46.037Z,16.34
2023-02-12T09:16:12.429Z,16.51
2023-02-12T09:18:38.775Z,15.89
2023-02-12T09:21:06.232Z,16.43
2023-02-12T09:23:32.614Z,16.58
2023-02-12T09:25:59.096Z,15.87
2023-02-12T09:28:25.685Z,16.23
2023-02-12T09:30:52.141Z,16.21
2023-02-12T09:33:19.621Z,16.24
2023-02-12T09:35:46.035Z,16.67
2023-02-12T09:38:12.522Z,21.35
2023-02-12T09:40:38.918Z,17.74
2023-02-12T09:43:05.254Z,17.67
2023-02-12T09:45:40.531Z,17.61
2023-02-12T09:50:57.626Z,17.77
2023-02-12T09:53:24.137Z,17.85
2023-02-12T09:55:50.648Z,18.18
2023-02-12T09:58:17.164Z,17.98
2023-02-12T10:00:43.617Z,18.24
2023-02-12T10:03:11.040Z,18.30
2023-02-12T10:05:37.528Z,18.81
2023-02-12T10:08:03.988Z,19.14
2023-02-12T10:10:30.441Z,20.36
2023-02-12T10:12:56.835Z,18.53
2023-02-12T10:15:23.365Z,18.17
2023-02-12T10:17:50.034Z,18.00
2023-02-12T10:20:16.411Z,23.45
2023-02-12T10:22:55.880Z,29.93
2023-02-12T10:25:23.118Z,33.68
2023-02-12T10:27:49.715Z,26.05
2023-02-12T10:30:16.137Z,20.75
2023-02-12T10:32:42.581Z,19.51
2023-02-12T10:35:10.738Z,19.16
2023-02-12T10:37:37.276Z,20.08
2023-02-12T10:40:03.834Z,20.02
2023-02-12T10:42:32.734Z,19.32
2023-02-12T10:45:01.567Z,19.00
2023-02-12T10:47:28.176Z,20.04
2023-02-12T10:49:54.931Z,19.73
2023-02-12T10:52:21.320Z,19.61
2023-02-12T10:54:49.872Z,19.29
2023-02-12T10:57:17.239Z,18.95
2023-02-12T10:59:43.693Z,20.08
2023-02-12T11:02:10.126Z,20.68
2023-02-12T11:04:36.795Z,21.07
2023-02-12T11:07:03.225Z,20.67
2023-02-12T11:09:29.789Z,21.57
2023-02-12T11:11:56.296Z,22.39
2023-02-12T11:14:22.748Z,22.57
2023-02-12T11:16:49.134Z,22.16
2023-02-12T11:19:15.593Z,21.93
2023-02-12T11:21:42.030Z,22.09
2023-02-12T11:24:08.451Z,22.62
2023-02-12T11:26:34.901Z,23.84
2023-02-12T11:29:02.132Z,25.26
2023-02-12T11:31:28.706Z,25.46
2023-02-12T11:33:56.315Z,27.12
2023-02-12T11:36:23.142Z,28.31
2023-02-12T11:38:50.591Z,28.52
2023-02-12T11:41:21.663Z,31.68
2023-02-12T11:43:48.140Z,33.17
2023-02-12T11:46:14.694Z,31.88
2023-02-12T11:48:43.062Z,32.76
2023-02-12T11:51:09.565Z,33.61
2023-02-12T11:53:37.037Z,35.45
2023-02-12T11:56:10.546Z,34.74
2023-02-12T11:58:37.069Z,34.36
2023-02-12T12:01:05.458Z,31.81
2023-02-12T12:03:31.903Z,32.04
2023-02-12T12:05:58.482Z,33.38
2023-02-12T12:08:24.980Z,35.06
2023-02-12T12:10:51.385Z,32.37
2023-02-12T12:13:19.036Z,34.37
2023-02-12T12:15:46.698Z,34.00
2023-02-12T12:18:13.189Z,34.09
2023-02-12T12:20:40.105Z,34.67
2023-02-12T12:23:06.594Z,35.26
2023-02-12T12:25:33.003Z,35.78
2023-02-12T12:27:59.838Z,37.85
2023-02-12T12:30:26.321Z,35.36
2023-02-12T12:32:52.814Z,34.81
2023-02-12T12:35:19.294Z,35.29
2023-02-12T12:37:45.789Z,35.42
2023-02-12T12:40:12.231Z,35.49
2023-02-12T12:42:38.624Z,36.56
2023-02-12T12:45:06.354Z,35.39
2023-02-12T12:47:32.848Z,36.57
2023-02-12T12:50:01.686Z,35.81
2023-02-12T12:52:28.177Z,35.19
2023-02-12T12:54:54.557Z,33.83
2023-02-12T12:57:21.683Z,33.76
2023-02-12T12:59:48.131Z,33.75
2023-02-12T13:02:14.812Z,34.17
2023-02-12T13:04:41.302Z,33.68
2023-02-12T13:07:07.730Z,35.65
2023-02-12T13:09:34.134Z,36.04
2023-02-12T13:12:01.423Z,37.54
2023-02-12T13:14:27.788Z,36.70
2023-02-12T13:16:54.338Z,36.92
2023-02-12T13:19:20.993Z,37.06
2023-02-12T13:21:47.504Z,37.06
2023-02-12T13:24:14.680Z,36.92
2023-02-12T13:29:21.518Z,37.10
2023-02-12T13:31:50.518Z,37.95
2023-02-12T13:34:17.032Z,39.53
2023-02-12T13:36:43.459Z,40.61
2023-02-12T13:39:09.846Z,39.97
2023-02-12T13:41:38.208Z,40.53
2023-02-12T13:44:10.655Z,40.39
2023-02-12T13:49:19.219Z,40.81
2023-02-12T13:51:45.829Z,40.60
2023-02-12T13:54:12.360Z,41.18
2023-02-12T13:56:38.782Z,41.19
2023-02-12T13:59:05.578Z,40.02
2023-02-12T14:01:32.102Z,40.09
2023-02-12T14:03:59.866Z,38.95
2023-02-12T14:06:26.385Z,40.33
2023-02-12T14:08:56.322Z,40.63
2023-02-12T14:11:22.773Z,40.89
2023-02-12T14:13:49.265Z,41.82
2023-02-12T14:16:16.843Z,41.79
2023-02-12T14:18:43.563Z,42.14
2023-02-12T14:21:10.209Z,41.61
2023-02-12T14:23:43.174Z,40.14
2023-02-12T14:26:10.750Z,41.24
2023-02-12T14:31:26.224Z,38.98
2023-02-12T14:33:53.069Z,39.40
2023-02-12T14:36:21.575Z,40.02
2023-02-12T14:38:48.188Z,39.20
2023-02-12T14:41:14.646Z,39.02
2023-02-12T14:43:41.080Z,38.71
2023-02-12T14:48:47.813Z,41.13
2023-02-12T14:51:14.200Z,40.71
2023-02-12T14:53:40.614Z,40.47
2023-02-12T14:56:07.298Z,41.48
2023-02-12T14:58:33.697Z,41.78
2023-02-12T15:01:01.736Z,40.20
2023-02-12T15:03:36.150Z,39.46
2023-02-12T15:06:08.976Z,39.51
2023-02-12T15:08:35.504Z,42.21
2023-02-12T15:11:01.964Z,44.54
2023-02-12T15:13:28.389Z,43.12
2023-02-12T15:15:55.049Z,41.27
2023-02-12T15:18:23.875Z,40.44
2023-02-12T15:20:50.605Z,39.07
2023-02-12T15:23:17.068Z,40.54
2023-02-12T15:25:43.480Z,41.42
2023-02-12T15:28:11.293Z,42.57
2023-02-12T15:30:40.672Z,43.47
2023-02-12T15:33:07.230Z,43.67
2023-02-12T15:35:33.818Z,43.67
2023-02-12T15:38:00.230Z,43.11
2023-02-12T15:40:34.292Z,43.40
2023-02-12T15:43:00.780Z,42.73
2023-02-12T15:45:34.666Z,43.09
2023-02-12T15:48:01.305Z,42.35
2023-02-12T15:50:27.898Z,43.23
2023-02-12T15:52:54.487Z,43.51
2023-02-12T15:55:20.933Z,42.61
2023-02-12T15:57:47.381Z,42.99
2023-02-12T16:00:13.733Z,42.42
2023-02-12T16:02:40.206Z,43.17
2023-02-12T16:05:06.724Z,42.35
2023-02-12T16:07:33.209Z,42.58
2023-02-12T16:09:59.706Z,42.00
2023-02-12T16:12:26.293Z,42.17
2023-02-12T16:14:52.940Z,42.04
2023-02-12T16:17:22.474Z,42.99
2023-02-12T16:19:50.097Z,42.51
2023-02-12T16:22:16.534Z,41.50
2023-02-12T16:24:43.130Z,42.31
2023-02-12T16:27:09.602Z,41.72
2023-02-12T16:29:36.279Z,42.07
2023-02-12T16:32:02.791Z,42.17
2023-02-12T16:34:29.583Z,42.39
2023-02-12T16:36:56.537Z,44.31
2023-02-12T16:39:23.150Z,43.15
2023-02-12T16:41:51.600Z,41.81
2023-02-12T16:44:23.459Z,41.38
2023-02-12T16:46:50.463Z,41.85
2023-02-12T16:49:17.200Z,40.71
2023-02-12T16:51:44.978Z,41.25
2023-02-12T16:54:11.457Z,41.30
2023-02-12T16:56:41.336Z,41.60
2023-02-12T16:59:07.825Z,41.80
2023-02-12T17:01:34.287Z,39.78
2023-02-12T17:04:00.799Z,39.38
2023-02-12T17:06:27.261Z,40.62
2023-02-12T17:08:53.929Z,41.75
2023-02-12T17:11:23.784Z,41.46
2023-02-12T17:13:50.735Z,40.17
2023-02-12T17:16:29.928Z,37.68
2023-02-12T17:19:08.318Z,33.50
2023-02-12T17:21:37.570Z,30.86
2023-02-12T17:24:05.941Z,27.42
2023-02-12T17:26:37.621Z,24.76
2023-02-12T17:29:04.228Z,24.82
2023-02-12T17:31:31.901Z,26.34
2023-02-12T17:33:58.439Z,31.82
2023-02-12T17:36:24.878Z,28.30
2023-02-12T17:38:55.315Z,26.89
2023-02-12T17:41:21.835Z,25.85
2023-02-12T17:43:48.562Z,25.68
2023-02-12T17:46:15.029Z,25.08
2023-02-12T17:48:43.691Z,25.51
2023-02-12T17:51:10.234Z,25.67
2023-02-12T17:53:39.328Z,24.91
2023-02-12T17:56:05.715Z,24.68
2023-02-12T17:58:32.082Z,26.01
2023-02-12T18:00:59.113Z,29.91
2023-02-12T18:03:25.816Z,29.49
2023-02-12T18:05:52.269Z,30.19
2023-02-12T18:08:23.540Z,26.54
2023-02-12T18:10:49.915Z,27.16
2023-02-12T18:13:20.351Z,25.06
2023-02-12T18:15:46.753Z,25.05
2023-02-12T18:18:17.584Z,28.39
2023-02-12T18:20:46.981Z,29.58
2023-02-12T18:23:13.381Z,30.77
2023-02-12T18:25:39.775Z,38.40
2023-02-12T18:28:13.369Z,41.07
2023-02-12T18:31:01.852Z,40.03
2023-02-12T18:33:28.347Z,38.74
2023-02-12T18:35:54.759Z,36.92
2023-02-12T18:38:21.170Z,36.42
2023-02-12T18:40:47.558Z,38.70
2023-02-12T18:43:14.012Z,36.62
2023-02-12T18:45:40.481Z,36.09
2023-02-12T18:48:14.874Z,37.99
2023-02-12T18:50:42.954Z,39.55
2023-02-12T18:53:09.458Z,37.17
2023-02-12T18:55:35.875Z,35.47
2023-02-12T18:58:02.230Z,35.89
2023-02-12T19:00:28.688Z,31.89
2023-02-12T19:02:55.068Z,30.26
2023-02-12T19:05:21.491Z,30.95
2023-02-12T19:07:47.891Z,30.01
2023-02-12T19:10:14.394Z,25.95
2023-02-12T19:12:40.858Z,26.29
2023-02-12T19:15:07.291Z,27.10
2023-02-12T19:17:35.382Z,29.54
2023-02-12T19:20:02.655Z,32.19
2023-02-12T19:22:29.096Z,33.40
2023-02-12T19:24:55.804Z,34.93
2023-02-12T19:27:22.267Z,29.47
2023-02-12T19:29:48.785Z,26.05
2023-02-12T19:32:15.389Z,26.32
2023-02-12T19:34:41.902Z,28.23
2023-02-12T19:37:10.265Z,31.09
2023-02-12T19:39:37.408Z,33.51
2023-02-12T19:42:03.857Z,31.59
2023-02-12T19:44:30.275Z,30.25
2023-02-12T19:46:56.862Z,28.07
2023-02-12T19:49:23.237Z,25.21
2023-02-12T19:51:49.648Z,25.66
2023-02-12T19:54:16.075Z,26.87
2023-02-12T19:56:42.449Z,26.06
2023-02-12T19:59:11.012Z,26.73
2023-02-12T20:01:41.089Z,30.90
2023-02-12T20:04:07.788Z,36.80
2023-02-12T20:06:34.207Z,30.22
2023-02-12T20:09:00.616Z,30.71
2023-02-12T20:11:27.125Z,30.02
2023-02-12T20:13:53.522Z,29.52
2023-02-12T20:16:19.956Z,28.29
2023-02-12T20:18:46.442Z,28.21
2023-02-12T20:21:13.875Z,27.44
2023-02-12T20:23:43.087Z,26.54
2023-02-12T20:26:09.535Z,25.02
2023-02-12T20:28:36.107Z,24.34
2023-02-12T20:31:02.889Z,25.13
2023-02-12T20:33:30.536Z,25.44
2023-02-12T20:35:57.463Z,25.92
2023-02-12T20:38:24.007Z,31.41
2023-02-12T20:40:52.718Z,33.34
2023-02-12T20:43:22.996Z,34.67
2023-02-12T20:48:25.602Z,32.53
2023-02-12T20:50:52.126Z,29.71
2023-02-12T20:53:18.553Z,29.80
2023-02-12T20:55:45.191Z,28.48
2023-02-12T20:58:11.613Z,29.21
2023-02-12T21:00:38.137Z,29.65
2023-02-12T21:03:04.661Z,29.26
2023-02-12T21:05:31.276Z,28.72
2023-02-12T21:08:00.603Z,29.85
2023-02-12T21:10:30.223Z,29.60
2023-02-12T21:12:59.469Z,30.39
2023-02-12T21:15:27.212Z,33.02
2023-02-12T21:17:54.304Z,34.82
2023-02-12T21:20:23.804Z,33.60
2023-02-12T21:22:50.250Z,33.75
2023-02-12T21:25:16.782Z,33.89
2023-02-12T21:27:45.376Z,31.28
2023-02-12T21:30:24.453Z,27.57
2023-02-12T21:32:55.074Z,27.92
2023-02-12T21:35:21.602Z,27.22
2023-02-12T21:37:48.227Z,27.14
2023-02-12T21:40:15.870Z,26.36
2023-02-12T21:42:43.585Z,26.16
2023-02-12T21:45:10.108Z,28.42
2023-02-12T21:47:36.537Z,29.08
2023-02-12T21:50:03.013Z,28.28
2023-02-12T21:52:31.531Z,28.60
2023-02-12T21:55:03.493Z,29.32
2023-02-12T21:57:30.027Z,29.78
2023-02-12T21:59:56.528Z,30.72
2023-02-12T22:02:24.821Z,29.83
2023-02-12T22:04:55.706Z,30.91
2023-02-12T22:07:22.142Z,32.47
2023-02-12T22:09:49.691Z,30.42
2023-02-12T22:12:19.313Z,27.57
2023-02-12T22:14:45.952Z,32.66
2023-02-12T22:17:12.402Z,33.54
2023-02-12T22:19:38.827Z,33.44
2023-02-12T22:22:05.379Z,33.19
2023-02-12T22:24:36.213Z,28.57
2023-02-12T22:27:05.451Z,27.69
2023-02-12T22:29:34.113Z,30.67
2023-02-12T22:32:00.682Z,31.89
2023-02-12T22:34:27.394Z,43.08
2023-02-12T22:36:53.897Z,31.01
2023-02-12T22:39:20.547Z,34.18
2023-02-12T22:41:47.124Z,28.67
2023-02-12T22:44:13.694Z,26.64
2023-02-12T22:46:40.213Z,28.60
2023-02-12T22:49:06.671Z,33.82
2023-02-12T22:51:33.341Z,34.45
2023-02-12T22:54:01.042Z,32.14
2023-02-12T22:56:27.460Z,31.77
2023-02-12T22:58:54.030Z,33.69
2023-02-12T23:01:20.542Z,32.60
2023-02-12T23:03:47.037Z,32.99
2023-02-12T23:06:13.951Z,33.72
2023-02-12T23:08:40.429Z,32.63
2023-02-12T23:11:08.362Z,32.79
2023-02-12T23:13:34.992Z,31.04
2023-02-12T23:16:03.488Z,29.06
2023-02-12T23:18:29.933Z,28.04
2023-02-12T23:21:00.534Z,30.79
2023-02-12T23:23:27.334Z,31.07
2023-02-12T23:25:56.394Z,32.36
2023-02-12T23:28:26.779Z,28.50
2023-02-12T23:31:02.690Z,25.56
2023-02-12T23:33:29.500Z,26.42
2023-02-12T23:38:46.300Z,22.00
2023-02-12T23:41:12.835Z,20.22
2023-02-12T23:43:39.335Z,20.37
2023-02-12T23:46:06.254Z,20.38
2023-02-12T23:48:37.947Z,21.35
2023-02-12T23:53:46.841Z,20.39
2023-02-12T23:56:13.337Z,20.06
2023-02-12T23:58:40.278Z,22.01
